.
WxDataArchive / Data Records for 2008-06-07
2008-06-06 June 2008 2008-06-08

Data Records for Saturday, 07 June 2008

Time	Temp	Chill	HIndex	Humid	Dewpt	 Wind 	HiWind	WindDir	Rain 	Barom 
-----	----	-----	------	-----	-----	------	------	-------	-----	----- 
00:00	69.6	69.6	69.6	85	64.9	0	2	248	0.00	29.886 
00:05	69.8	69.8	69.8	85	65.1	1	4	248	0.00	29.886 
00:10	69.9	69.9	69.9	85	65.2	0	4	315	0.00	29.886 
00:15	70.1	70.1	70.1	85	65.4	1	4	315	0.00	29.889 
00:20	70.4	70.4	70.4	85	65.7	1	3	292	0.00	29.889 
00:25	70.6	70.6	70.6	84	65.5	2	4	248	0.00	29.893 
00:30	70.8	70.8	70.8	84	65.7	1	3	270	0.00	29.897 
00:35	70.9	70.9	70.9	84	65.8	1	4	248	0.00	29.898 
00:40	71.1	71.1	71.1	84	66.0	1	5	270	0.00	29.903 
00:45	71.3	71.3	71.3	84	66.2	2	4	270	0.00	29.904 
00:50	71.6	71.6	71.6	83	66.2	2	5	248	0.00	29.905 
00:55	71.6	71.6	71.6	83	66.2	1	4	270	0.00	29.903 
01:00	71.6	71.6	71.6	83	66.2	1	5	270	0.00	29.899 
01:05	71.8	71.8	71.8	83	66.3	2	4	248	0.00	29.895 
01:10	71.8	71.8	71.8	82	66.0	1	3	248	0.00	29.897 
01:15	72.0	72.0	72.0	82	66.2	1	5	248	0.00	29.898 
01:20	72.1	72.1	72.1	81	65.9	1	3	248	0.00	29.900 
01:25	72.5	72.5	72.5	81	66.3	2	4	248	0.00	29.897 
01:30	72.7	72.7	72.7	80	66.2	2	5	248	0.00	29.896 
01:35	73.0	73.0	73.0	79	66.1	2	5	248	0.00	29.894 
01:40	73.2	73.2	73.2	78	65.9	2	5	248	0.00	29.892 
01:45	73.5	73.5	73.5	78	66.2	2	4	248	0.00	29.893 
01:50	73.7	73.7	73.7	77	66.0	2	5	270	0.00	29.890 
01:55	73.9	73.9	73.9	77	66.2	1	3	248	0.00	29.889 
02:00	73.9	73.9	73.9	77	66.2	1	3	270	0.00	29.888 
02:05	73.7	73.7	73.7	77	66.0	1	5	270	0.00	29.890 
02:10	73.9	73.9	73.9	77	66.2	2	7	270	0.00	29.890 
02:15	73.9	73.9	73.9	77	66.2	2	4	270	0.00	29.888 
02:20	73.9	73.9	73.9	77	66.2	2	4	248	0.00	29.888 
02:25	74.0	74.0	74.0	77	66.3	3	7	270	0.00	29.889 
02:30	74.0	74.0	74.0	77	66.3	3	9	270	0.00	29.889 
02:35	74.0	74.0	74.0	76	65.9	3	10	270	0.00	29.889 
02:40	74.0	74.0	74.0	77	66.3	2	6	270	0.00	29.888 
02:45	74.0	74.0	74.0	76	65.9	2	6	270	0.00	29.886 
02:50	74.0	74.0	74.0	76	65.9	3	7	248	0.00	29.887 
02:55	74.0	74.0	74.0	76	65.9	1	4	248	0.00	29.885 
03:00	74.0	74.0	74.0	76	65.9	2	6	270	0.00	29.883 
03:05	74.2	74.2	74.2	76	66.1	2	6	270	0.00	29.879 
03:10	74.0	74.0	74.0	76	65.9	3	7	270	0.00	29.881 
03:15	74.0	74.0	74.0	76	65.9	1	3	248	0.00	29.884 
03:20	73.9	73.9	73.9	76	65.8	2	5	248	0.00	29.879 
03:25	73.9	73.9	73.9	76	65.8	2	5	248	0.00	29.881 
03:30	73.9	73.9	73.9	76	65.8	2	5	270	0.00	29.886 
03:35	73.9	73.9	73.9	76	65.8	2	4	248	0.00	29.883 
03:40	73.9	73.9	73.9	76	65.8	2	5	248	0.00	29.875 
03:45	73.9	73.9	73.9	77	66.2	1	3	270	0.00	29.880 
03:50	73.7	73.7	73.7	77	66.0	1	5	270	0.00	29.884 
03:55	73.7	73.7	73.7	77	66.0	1	3	225	0.00	29.889 
04:00	73.5	73.5	73.5	77	65.8	1	3	248	0.00	29.888 
04:05	73.7	73.7	73.7	77	66.0	2	6	248	0.00	29.899 
04:10	73.7	73.7	73.7	77	66.0	1	3	248	0.00	29.899 
04:15	73.3	73.3	73.3	77	65.6	1	2	248	0.00	29.900 
04:20	73.2	73.2	73.2	78	65.9	1	3	248	0.00	29.904 
04:25	73.2	73.2	73.2	78	65.9	2	4	248	0.00	29.904 
04:30	73.2	73.2	73.2	78	65.9	2	5	292	0.00	29.907 
04:35	73.3	73.3	73.3	77	65.6	2	4	248	0.00	29.909 
04:40	73.3	73.3	73.3	78	66.0	1	4	248	0.00	29.913 
04:45	73.3	73.3	73.3	78	66.0	1	4	248	0.00	29.909 
04:50	73.3	73.3	73.3	78	66.0	2	7	248	0.00	29.908 
04:55	73.5	73.5	73.5	78	66.2	1	4	248	0.00	29.912 
05:00	73.5	73.5	73.5	78	66.2	2	4	248	0.00	29.915 
05:05	73.5	73.5	73.5	78	66.2	2	5	248	0.00	29.906 
05:10	73.5	73.5	73.5	78	66.2	1	5	248	0.00	29.906 
05:15	73.5	73.5	73.5	79	66.6	1	3	248	0.00	29.912 
05:20	73.5	73.5	73.5	80	66.9	1	4	248	0.00	29.922 
05:25	73.5	73.5	73.5	80	66.9	2	5	248	0.00	29.922 
05:30	73.5	73.5	73.5	80	66.9	1	4	270	0.00	29.927 
05:35	73.5	73.5	73.5	81	67.3	1	3	248	0.00	29.928 
05:40	73.7	73.7	73.7	81	67.5	2	5	248	0.00	29.934 
05:45	73.7	73.7	73.7	81	67.5	2	4	248	0.00	29.933 
05:50	73.5	73.5	73.5	81	67.3	1	3	248	0.00	29.935 
05:55	73.5	73.5	73.5	82	67.7	1	5	270	0.00	29.934 
06:00	73.3	73.3	73.3	83	67.8	2	5	270	0.00	29.934 
06:05	73.2	73.2	73.2	83	67.7	2	5	248	0.00	29.935 
06:10	73.2	73.2	73.2	84	68.1	2	7	248	0.00	29.935 
06:15	73.2	73.2	73.2	84	68.1	2	6	270	0.00	29.938 
06:20	73.0	73.0	73.0	84	67.9	2	6	270	0.00	29.936 
06:25	73.2	73.2	73.2	84	68.1	2	6	270	0.00	29.935 
06:30	73.2	73.2	73.2	84	68.1	1	4	248	0.00	29.932 
06:35	73.2	73.2	73.2	85	68.4	1	5	248	0.00	29.927 
06:40	73.0	73.0	73.0	85	68.2	1	4	248	0.00	29.924 
06:45	73.0	73.0	73.0	85	68.2	1	6	248	0.00	29.923 
06:50	73.0	73.0	73.0	85	68.2	1	2	248	0.00	29.924 
06:55	73.0	73.0	73.0	85	68.2	1	5	248	0.00	29.925 
07:00	73.0	73.0	73.0	86	68.6	0	2	270	0.00	29.933 
07:05	73.0	73.0	73.0	86	68.6	0	2	270	0.00	29.948 
07:10	73.0	73.0	73.0	86	68.6	1	5	270	0.00	29.950 
07:15	73.2	73.2	73.2	85	68.4	1	3	248	0.00	29.954 
07:20	73.2	73.2	73.2	85	68.4	0	2	270	0.00	29.949 
07:25	73.2	73.2	73.2	86	68.7	0	1	270	0.00	29.946 
07:30	73.2	73.2	73.2	86	68.7	1	3	270	0.00	29.937 
07:35	73.2	73.2	73.2	86	68.7	0	2	270	0.00	29.936 
07:40	73.2	73.2	73.2	86	68.7	0	1	270	0.00	29.934 
07:45	73.2	73.2	73.2	86	68.7	0	0	---	0.00	29.936 
07:50	73.2	73.2	73.2	86	68.7	0	0	---	0.00	29.935 
07:55	73.2	73.2	73.2	86	68.7	0	0	---	0.00	29.936 
08:00	73.2	73.2	73.2	87	69.1	0	1	270	0.00	29.940 
08:05	73.2	73.2	73.2	87	69.1	0	0	---	0.00	29.940 
08:10	73.2	73.2	73.2	87	69.1	0	1	270	0.00	29.945 
08:15	73.2	73.2	73.2	87	69.1	0	1	270	0.00	29.952 
08:20	73.3	73.3	73.3	87	69.2	1	2	270	0.00	29.961 
08:25	73.3	73.3	73.3	86	68.8	0	1	270	0.00	29.954 
08:30	73.5	73.5	73.5	86	69.0	0	3	270	0.00	29.951 
08:35	73.7	73.7	73.7	86	69.2	0	1	270	0.00	29.951 
08:40	73.7	73.7	73.7	86	69.2	1	3	248	0.00	29.963 
08:45	73.9	73.9	73.9	85	69.1	1	3	90	0.00	29.964 
08:50	73.9	73.9	73.9	85	69.1	1	3	248	0.00	29.965 
08:55	73.9	73.9	73.9	84	68.7	1	3	225	0.00	29.964 
09:00	73.9	73.9	73.9	84	68.7	1	4	225	0.00	29.964 
09:05	73.9	73.9	73.9	83	68.4	1	4	248	0.00	29.964 
09:10	73.9	73.9	73.9	83	68.4	2	4	248	0.00	29.963 
09:15	73.9	73.9	73.9	83	68.4	1	6	248	0.00	29.964 
09:20	73.9	73.9	73.9	83	68.4	2	6	248	0.00	29.966 
09:25	73.9	73.9	73.9	84	68.7	1	3	248	0.00	29.968 
09:30	73.9	73.9	73.9	84	68.7	1	3	248	0.00	29.965 
09:35	73.7	73.7	73.7	84	68.6	2	4	248	0.00	29.966 
09:40	73.7	73.7	73.7	84	68.6	1	5	270	0.00	29.969 
09:45	73.9	73.9	73.9	83	68.4	2	7	270	0.00	29.964 
09:50	74.0	74.0	74.0	83	68.5	1	4	248	0.00	29.964 
09:55	74.0	74.0	74.0	83	68.5	1	3	248	0.00	29.965 
10:00	74.0	74.0	74.0	82	68.1	2	4	248	0.00	29.969 
10:05	74.0	74.0	74.0	82	68.1	2	5	248	0.00	29.979 
10:10	74.2	74.2	74.2	82	68.3	2	4	248	0.00	29.973 
10:15	74.2	74.2	74.2	81	68.0	2	6	248	0.00	29.964 
10:20	74.2	74.2	74.2	81	68.0	3	9	270	0.00	29.949 
10:25	74.2	74.2	74.2	81	68.0	1	5	270	0.00	29.951 
10:30	74.2	74.2	74.2	81	68.0	1	5	225	0.00	29.946 
10:35	74.2	74.2	74.2	81	68.0	2	6	248	0.00	29.952 
10:40	74.2	74.2	74.2	81	68.0	1	2	248	0.00	29.953 
10:45	74.4	74.4	74.4	81	68.2	1	4	248	0.00	29.952 
10:50	74.4	74.4	74.4	81	68.2	2	5	248	0.00	29.953 
10:55	74.2	74.2	74.2	80	67.6	3	7	270	0.00	29.952 
11:00	74.2	74.2	74.2	80	67.6	3	10	270	0.00	29.951 
11:05	74.2	74.2	74.2	80	67.6	2	4	270	0.00	29.949 
11:10	74.0	74.0	74.0	80	67.4	2	4	270	0.00	29.948 
11:15	74.0	74.0	74.0	79	67.1	2	6	248	0.00	29.951 
11:20	74.4	74.4	74.4	79	67.4	1	3	270	0.00	29.952 
11:25	74.6	74.6	74.6	79	67.6	1	9	292	0.00	29.960 
11:30	74.7	74.7	74.7	79	67.7	1	3	248	0.00	29.960 
11:35	74.9	74.9	74.9	78	67.6	2	5	270	0.00	29.976 
11:40	75.3	75.3	76.4	76	67.2	2	5	270	0.00	29.981 
11:45	75.4	75.4	76.5	76	67.3	2	5	248	0.00	29.973 
11:50	75.3	75.3	76.6	74	66.4	3	7	270	0.00	29.969 
11:55	75.1	75.1	76.4	74	66.2	3	11	270	0.00	29.970 
12:00	75.3	75.3	76.5	75	66.8	3	11	248	0.00	29.969 
12:05	75.4	75.4	76.8	73	66.1	3	6	270	0.00	29.968 
12:10	75.6	75.6	77.1	72	65.9	3	8	248	0.00	29.961 
12:15	75.8	75.8	77.3	73	66.5	2	10	248	0.00	29.961 
12:20	75.8	75.8	77.4	71	65.7	3	10	270	0.00	29.962 
12:25	76.0	76.0	77.7	70	65.5	3	9	270	0.00	29.962 
12:30	76.1	76.1	77.8	70	65.6	3	8	248	0.00	29.964 
12:35	76.0	76.0	77.7	69	65.1	4	10	270	0.00	29.964 
12:40	76.1	76.1	77.8	69	65.2	4	9	270	0.00	29.963 
12:45	76.1	76.1	77.8	69	65.2	4	11	270	0.00	29.962 
12:50	76.5	76.5	78.2	69	65.6	2	10	248	0.00	29.961 
12:55	76.8	76.8	78.5	70	66.3	2	5	248	0.00	29.960 
13:00	77.2	77.2	79.0	68	65.8	3	7	270	0.00	29.957 
13:05	77.2	77.2	79.0	69	66.2	2	5	270	0.00	29.948 
13:10	77.2	77.2	79.0	67	65.4	2	7	270	0.00	29.945 
13:15	76.8	76.8	78.6	67	65.0	3	6	248	0.00	29.945 
13:20	76.5	76.5	78.3	68	65.1	3	9	270	0.00	29.951 
13:25	76.3	76.3	78.0	68	64.9	3	7	270	0.00	29.951 
13:30	76.5	76.5	78.2	69	65.6	2	5	248	0.00	29.951 
13:35	76.3	76.3	78.0	68	64.9	2	6	270	0.00	29.957 
13:40	76.3	76.3	78.0	68	64.9	3	5	270	0.00	29.961 
13:45	76.3	76.3	78.0	69	65.4	2	4	248	0.00	29.960 
13:50	76.5	76.5	78.3	68	65.1	3	6	248	0.00	29.964 
13:55	76.5	76.5	78.3	68	65.1	2	6	270	0.00	29.961 
14:00	76.3	76.3	78.0	69	65.4	3	7	248	0.00	29.960 
14:05	76.3	76.3	78.0	68	64.9	4	9	248	0.00	29.957 
14:10	76.3	76.3	78.0	69	65.4	2	6	270	0.00	29.949 
14:15	76.3	76.3	78.0	69	65.4	3	9	270	0.00	29.946 
14:20	76.1	76.1	77.8	70	65.6	3	10	248	0.00	29.945 
14:25	76.0	76.0	77.6	71	65.9	3	9	270	0.00	29.935 
14:30	76.0	76.0	77.5	72	66.3	2	5	270	0.00	29.930 
14:35	76.1	76.1	77.7	72	66.4	2	6	270	0.00	29.928 
14:40	76.3	76.3	77.9	71	66.2	2	5	248	0.00	29.927 
14:45	76.3	76.3	78.0	70	65.8	2	6	270	0.00	29.919 
14:50	76.5	76.5	78.2	70	66.0	2	5	270	0.00	29.922 
14:55	76.8	76.8	78.5	71	66.7	2	5	270	0.00	29.920 
15:00	77.0	77.0	78.8	71	66.9	2	5	248	0.00	29.917 
15:05	76.8	76.8	78.5	71	66.7	2	7	248	0.00	29.919 
15:10	76.8	76.8	78.5	71	66.7	3	9	270	0.00	29.916 
15:15	76.8	76.8	78.5	72	67.1	3	5	270	0.00	29.906 
15:20	77.2	77.2	79.0	73	67.9	2	6	248	0.00	29.909 
15:25	77.7	77.7	79.7	73	68.3	2	7	248	0.00	29.900 
15:30	78.3	78.3	80.6	73	68.9	2	6	270	0.00	29.896 
15:35	78.6	78.6	80.9	71	68.4	2	7	248	0.00	29.896 
15:40	78.8	78.8	81.1	70	68.2	3	7	270	0.00	29.895 
15:45	79.4	79.4	81.9	69	68.3	2	6	248	0.00	29.891 
15:50	79.6	79.6	82.1	68	68.1	3	14	248	0.00	29.887 
15:55	79.4	79.4	81.7	67	67.5	3	10	248	0.00	29.888 
16:00	79.6	79.6	82.1	68	68.1	2	6	248	0.00	29.882 
16:05	79.9	79.9	82.5	67	67.9	2	5	270	0.00	29.881 
16:10	80.1	80.1	82.6	66	67.7	2	5	248	0.00	29.881 
16:15	80.3	80.3	82.7	64	67.0	3	7	270	0.00	29.885 
16:20	80.1	80.1	82.4	64	66.8	2	10	248	0.00	29.889 
16:25	79.9	79.9	82.0	63	66.2	2	10	270	0.00	29.891 
16:30	79.8	79.8	82.0	64	66.5	2	9	248	0.00	29.890 
16:35	79.8	79.8	81.9	63	66.1	2	4	248	0.00	29.889 
16:40	79.8	79.8	81.9	63	66.1	2	4	270	0.00	29.892 
16:45	80.3	80.3	82.5	63	66.5	2	5	270	0.00	29.893 
16:50	80.9	80.9	83.1	61	66.2	2	4	248	0.00	29.894 
16:55	81.4	81.4	83.4	59	65.7	1	4	248	0.00	29.895 
17:00	81.8	81.8	83.8	58	65.6	2	6	248	0.00	29.898 
17:05	82.0	82.0	83.9	57	65.2	1	5	270	0.00	29.898 
17:10	82.2	82.2	84.3	58	65.9	2	4	270	0.00	29.897 
17:15	82.2	82.2	84.7	60	66.9	1	3	248	0.00	29.896 
17:20	82.0	82.0	84.1	58	65.7	2	6	248	0.00	29.901 
17:25	81.8	81.8	83.6	57	65.0	3	7	248	0.00	29.902 
17:30	81.8	81.8	83.5	56	64.5	2	6	270	0.00	29.900 
17:35	81.6	81.6	83.4	57	64.9	2	6	248	0.00	29.898 
17:40	81.4	81.4	83.1	57	64.7	2	5	270	0.00	29.896 
17:45	81.2	81.2	83.0	58	65.0	1	5	248	0.00	29.895 
17:50	81.2	81.2	83.2	59	65.5	1	3	248	0.00	29.895 
17:55	81.2	81.2	83.2	59	65.5	2	6	270	0.00	29.894 
18:00	81.2	81.2	83.0	58	65.0	2	5	292	0.00	29.890 
18:05	81.2	81.2	83.2	59	65.5	1	7	270	0.00	29.885 
18:10	81.1	81.1	83.2	60	65.9	1	4	292	0.00	29.885 
18:15	81.1	81.1	83.3	61	66.4	1	4	270	0.00	29.890 
18:20	81.1	81.1	83.5	62	66.8	1	3	270	0.00	29.882 
18:25	81.1	81.1	83.3	61	66.4	1	7	270	0.00	29.882 
18:30	80.9	80.9	83.1	61	66.2	1	7	270	0.00	29.881 
18:35	80.7	80.7	82.9	62	66.4	1	6	270	0.00	29.879 
18:40	80.5	80.5	82.8	63	66.7	1	4	270	0.00	29.882 
18:45	80.3	80.3	82.7	64	67.0	0	2	112	0.00	29.884 
18:50	80.1	80.1	82.4	64	66.8	0	2	90	0.00	29.887 
18:55	79.9	79.9	82.2	65	67.1	0	3	90	0.00	29.891 
19:00	79.8	79.8	82.1	65	67.0	1	3	90	0.00	29.890 
19:05	79.8	79.8	82.1	65	67.0	1	3	90	0.00	29.885 
19:10	79.6	79.6	81.8	65	66.8	0	2	90	0.00	29.880 
19:15	79.6	79.6	81.9	66	67.2	1	4	68	0.00	29.881 
19:20	79.4	79.4	81.7	67	67.5	1	4	68	0.00	29.874 
19:25	79.2	79.2	81.5	67	67.3	1	3	112	0.00	29.873 
19:30	79.2	79.2	81.5	68	67.7	1	4	112	0.00	29.869 
19:35	79.0	79.0	81.3	68	67.5	1	2	112	0.00	29.866 
19:40	78.8	78.8	81.1	69	67.7	1	3	112	0.00	29.865 
19:45	78.8	78.8	81.1	69	67.7	1	3	112	0.00	29.860 
19:50	78.6	78.6	80.8	70	68.0	1	3	90	0.00	29.856 
19:55	78.5	78.5	80.7	70	67.9	1	4	112	0.00	29.856 
20:00	78.3	78.3	80.5	71	68.1	1	3	90	0.00	29.867 
20:05	78.1	78.1	80.2	72	68.3	1	4	112	0.00	29.866 
20:10	77.9	77.9	80.0	73	68.5	0	2	112	0.00	29.874 
20:15	77.9	77.9	80.0	73	68.5	0	1	112	0.00	29.876 
20:20	77.7	77.7	79.7	74	68.7	0	1	112	0.00	29.876 
20:25	77.6	77.6	79.6	75	69.0	0	2	112	0.00	29.874 
20:30	77.4	77.4	79.3	75	68.8	0	2	112	0.00	29.869 
20:35	77.2	77.2	79.0	76	69.0	0	1	112	0.00	29.873 
20:40	77.0	77.0	78.7	77	69.2	0	1	112	0.00	29.870 
20:45	76.7	76.7	78.2	77	68.9	0	0	---	0.00	29.876 
20:50	76.3	76.3	77.6	78	68.9	0	2	112	0.00	29.866 
20:55	76.1	76.1	77.2	79	69.1	0	1	112	0.00	29.866 
21:00	75.8	75.8	76.7	80	69.2	0	1	112	0.00	29.866 
21:05	75.6	75.6	76.4	80	69.0	0	1	112	0.00	29.862 
21:10	75.6	75.6	76.3	81	69.3	0	2	112	0.00	29.858 
21:15	75.4	75.4	76.0	81	69.1	0	2	112	0.00	29.854 
21:20	75.3	75.3	75.9	81	69.1	0	2	112	0.00	29.854 
21:25	75.1	75.1	75.5	82	69.2	0	2	112	0.00	29.855 
21:30	75.1	75.1	75.3	83	69.6	0	2	112	0.00	29.858 
21:35	75.1	75.1	75.3	83	69.6	1	2	112	0.00	29.856 
21:40	75.1	75.1	75.3	83	69.6	1	3	90	0.00	29.861 
21:45	75.1	75.1	75.2	84	69.9	0	2	90	0.00	29.859 
21:50	74.9	74.9	74.9	84	69.7	0	2	90	0.00	29.865 
21:55	74.9	74.9	74.9	84	69.7	0	1	90	0.00	29.868 
22:00	74.9	74.9	74.9	84	69.7	0	1	90	0.00	29.876 
22:05	74.9	74.9	74.9	85	70.1	0	0	---	0.00	29.875 
22:10	74.7	74.7	74.7	85	69.9	0	0	---	0.00	29.883 
22:15	74.6	74.6	74.6	86	70.1	0	0	---	0.00	29.884 
22:20	74.4	74.4	74.4	86	69.9	0	0	---	0.00	29.883 
22:25	74.2	74.2	74.2	87	70.1	0	0	---	0.00	29.885 
22:30	74.0	74.0	74.0	87	69.9	0	0	---	0.00	29.885 
22:35	73.9	73.9	73.9	88	70.1	0	0	---	0.00	29.882 
22:40	73.9	73.9	73.9	89	70.4	0	0	---	0.00	29.881 
22:45	73.9	73.9	73.9	89	70.4	0	0	---	0.00	29.881 
22:50	73.9	73.9	73.9	90	70.8	0	1	90	0.00	29.881 
22:55	74.0	74.0	74.0	90	70.9	0	2	90	0.00	29.878 
23:00	74.0	74.0	74.0	90	70.9	0	1	90	0.00	29.871 
23:05	74.2	74.2	74.2	91	71.4	0	0	---	0.00	29.870 
23:10	74.2	74.2	74.2	91	71.4	0	1	90	0.00	29.869 
23:15	74.4	74.4	74.4	91	71.6	0	1	90	0.00	29.872 
23:20	74.7	74.7	74.7	91	71.9	0	3	292	0.00	29.875 
23:25	74.9	74.9	74.9	90	71.8	0	1	292	0.00	29.878 
23:30	75.1	75.1	74.3	90	72.0	0	3	292	0.00	29.876 
23:35	75.3	75.3	74.8	89	71.8	0	3	248	0.00	29.880 
23:40	75.6	75.6	75.4	89	72.1	1	3	248	0.00	29.883 
23:45	75.8	75.8	75.9	88	72.0	0	2	248	0.00	29.883 
23:50	76.0	76.0	76.4	87	71.8	0	3	248	0.00	29.883 
23:55	76.1	76.1	76.6	87	71.9	0	2	248	0.00	29.885 

CoCoRaHS
IN-AL-39
A2 Web Hosting
Creative Commons License
GoDaddy
Look for:

loaded 2017-10-17 22:08:29 • last modified 2010-11-18 10:43:29
Privacy PolicyDisclaimer
• wx.awcolley.com is powered by PmWiki v.2002016 •
• all content (unless otherwise noted) © 2017 A W Colley